createdAt,value
2023-05-05T00:01:37.853Z,15.97
2023-05-05T00:04:05.126Z,15.76
2023-05-05T00:06:58.387Z,15.85
2023-05-05T00:09:25.357Z,15.91
2023-05-05T00:11:52.152Z,15.95
2023-05-05T00:14:19.261Z,15.90
2023-05-05T00:16:46.409Z,15.73
2023-05-05T00:19:13.321Z,15.68
2023-05-05T00:21:40.223Z,15.71
2023-05-05T00:24:08.514Z,15.77
2023-05-05T00:26:35.733Z,15.85
2023-05-05T00:29:03.242Z,15.89
2023-05-05T00:31:30.111Z,15.92
2023-05-05T00:33:57.238Z,15.96
2023-05-05T00:36:24.230Z,16.02
2023-05-05T00:38:51.106Z,16.07
2023-05-05T00:41:19.434Z,16.09
2023-05-05T00:43:46.545Z,16.11
2023-05-05T00:46:23.586Z,16.11
2023-05-05T00:48:51.321Z,16.16
2023-05-05T00:51:20.343Z,16.15
2023-05-05T00:53:48.050Z,16.16
2023-05-05T00:56:16.628Z,16.16
2023-05-05T00:58:46.410Z,16.19
2023-05-05T01:01:14.482Z,16.17
2023-05-05T01:03:42.299Z,16.21
2023-05-05T01:06:24.526Z,16.22
2023-05-05T01:09:08.190Z,16.23
2023-05-05T01:11:46.226Z,16.18
2023-05-05T01:14:24.341Z,16.18
2023-05-05T01:16:59.909Z,16.14
2023-05-05T01:20:02.455Z,16.06
2023-05-05T01:22:38.694Z,15.93
2023-05-05T01:25:37.382Z,15.85
2023-05-05T01:28:27.670Z,15.90
2023-05-05T01:31:47.243Z,15.96
2023-05-05T01:34:22.126Z,15.83
2023-05-05T01:36:58.580Z,15.76
2023-05-05T01:39:34.764Z,15.62
2023-05-05T01:42:09.789Z,15.61
2023-05-05T01:44:38.183Z,15.64
2023-05-05T01:47:06.511Z,15.68
2023-05-05T01:49:38.102Z,15.69
2023-05-05T01:52:08.827Z,15.71
2023-05-05T01:54:38.081Z,15.73
2023-05-05T01:57:31.133Z,15.68
2023-05-05T02:00:23.411Z,15.61
2023-05-05T02:03:24.487Z,15.63
2023-05-05T02:05:55.870Z,15.66
2023-05-05T02:08:25.757Z,15.68
2023-05-05T02:10:54.492Z,15.69
2023-05-05T02:13:24.815Z,15.65
2023-05-05T02:15:53.303Z,15.64
2023-05-05T02:18:22.856Z,15.50
2023-05-05T02:20:50.607Z,15.37
2023-05-05T02:23:19.447Z,15.30
2023-05-05T02:25:51.028Z,15.26
2023-05-05T02:28:22.892Z,15.33
2023-05-05T02:30:59.147Z,15.38
2023-05-05T02:33:34.145Z,15.42
2023-05-05T02:36:10.177Z,15.45
2023-05-05T02:38:48.468Z,15.47
2023-05-05T02:41:20.939Z,15.50
2023-05-05T02:43:51.025Z,15.53
2023-05-05T02:46:19.495Z,15.51
2023-05-05T02:48:48.050Z,15.49
2023-05-05T02:51:15.672Z,15.38
2023-05-05T02:53:44.232Z,15.27
2023-05-05T02:56:26.922Z,15.16
2023-05-05T02:59:08.652Z,15.16
2023-05-05T03:01:51.414Z,15.13
2023-05-05T03:04:27.073Z,15.14
2023-05-05T03:07:18.017Z,15.14
2023-05-05T03:10:18.204Z,14.96
2023-05-05T03:12:54.321Z,14.93
2023-05-05T03:15:35.771Z,14.87
2023-05-05T03:18:06.266Z,14.75
2023-05-05T03:20:34.824Z,14.68
2023-05-05T03:23:07.449Z,14.65
2023-05-05T03:25:46.560Z,14.58
2023-05-05T03:28:21.581Z,14.47
2023-05-05T03:30:48.744Z,14.48
2023-05-05T03:33:17.979Z,14.49
2023-05-05T03:35:45.744Z,14.53
2023-05-05T03:38:13.900Z,14.54
2023-05-05T03:40:44.559Z,14.57
2023-05-05T03:43:15.588Z,14.61
2023-05-05T03:45:42.920Z,14.52
2023-05-05T03:48:10.831Z,14.41
2023-05-05T03:50:39.644Z,14.26
2023-05-05T03:53:07.659Z,14.23
2023-05-05T03:55:34.745Z,14.27
2023-05-05T03:58:02.209Z,14.33
2023-05-05T04:00:30.482Z,14.45
2023-05-05T04:02:57.499Z,14.56
2023-05-05T04:05:26.555Z,14.67
2023-05-05T04:07:53.835Z,14.78
2023-05-05T04:10:20.920Z,14.87
2023-05-05T04:12:48.970Z,14.93
2023-05-05T04:15:16.159Z,15.02
2023-05-05T04:17:45.289Z,15.08
2023-05-05T04:20:12.602Z,15.16
2023-05-05T04:22:40.380Z,15.25
2023-05-05T04:25:08.108Z,15.35
2023-05-05T04:27:35.601Z,15.50
2023-05-05T04:30:03.068Z,15.74
2023-05-05T04:32:32.422Z,15.86
2023-05-05T04:35:01.155Z,15.91
2023-05-05T04:37:28.534Z,15.94
2023-05-05T04:39:56.768Z,16.02
2023-05-05T04:42:23.970Z,16.13
2023-05-05T04:44:52.046Z,16.50
2023-05-05T04:47:18.894Z,16.97
2023-05-05T04:49:45.873Z,17.33
2023-05-05T04:52:14.211Z,17.73
2023-05-05T04:54:41.057Z,17.74
2023-05-05T04:57:07.879Z,17.83
2023-05-05T04:59:36.030Z,17.93
2023-05-05T05:02:02.826Z,18.01
2023-05-05T05:04:29.820Z,18.55
2023-05-05T05:07:00.837Z,18.63
2023-05-05T05:09:29.058Z,18.50
2023-05-05T05:11:59.991Z,18.04
2023-05-05T05:14:26.830Z,17.71
2023-05-05T05:16:53.890Z,17.57
2023-05-05T05:19:22.778Z,17.50
2023-05-05T05:21:49.571Z,17.56
2023-05-05T05:24:16.537Z,17.53
2023-05-05T05:26:45.381Z,17.51
2023-05-05T05:29:13.076Z,17.97
2023-05-05T05:31:39.969Z,18.17
2023-05-05T05:34:07.168Z,19.08
2023-05-05T05:36:35.679Z,19.02
2023-05-05T05:39:03.569Z,19.73
2023-05-05T05:41:30.704Z,20.08
2023-05-05T05:43:59.174Z,20.76
2023-05-05T05:46:27.680Z,20.89
2023-05-05T05:48:55.027Z,21.59
2023-05-05T05:51:22.091Z,22.56
2023-05-05T05:53:50.094Z,23.44
2023-05-05T05:56:16.888Z,23.53
2023-05-05T05:58:44.058Z,24.07
2023-05-05T06:01:12.626Z,24.79
2023-05-05T06:03:39.745Z,25.09
2023-05-05T06:06:07.389Z,24.39
2023-05-05T06:08:35.933Z,23.39
2023-05-05T06:11:02.977Z,23.05
2023-05-05T06:13:30.750Z,22.92
2023-05-05T06:15:58.131Z,21.62
2023-05-05T06:18:26.557Z,20.91
2023-05-05T06:20:53.387Z,20.64
2023-05-05T06:23:25.588Z,21.16
2023-05-05T06:25:57.562Z,22.36
2023-05-05T06:28:24.497Z,22.95
2023-05-05T06:30:51.516Z,22.71
2023-05-05T06:33:21.940Z,23.47
2023-05-05T06:35:51.824Z,24.67
2023-05-05T06:38:18.704Z,24.71
2023-05-05T06:40:48.157Z,24.62
2023-05-05T06:43:15.803Z,23.71
2023-05-05T06:45:47.096Z,23.02
2023-05-05T06:48:13.973Z,22.24
2023-05-05T06:50:41.113Z,21.31
2023-05-05T06:53:09.321Z,20.54
2023-05-05T06:55:37.177Z,20.31
2023-05-05T06:58:09.098Z,19.90
2023-05-05T07:00:37.319Z,19.79
2023-05-05T07:03:04.601Z,19.94
2023-05-05T07:05:32.248Z,20.29
2023-05-05T07:07:59.534Z,20.70
2023-05-05T07:10:28.281Z,21.05
2023-05-05T07:12:55.423Z,21.50
2023-05-05T07:15:28.643Z,22.57
2023-05-05T07:17:58.188Z,24.06
2023-05-05T07:20:25.829Z,24.99
2023-05-05T07:22:54.221Z,26.23
2023-05-05T07:25:21.519Z,27.27
2023-05-05T07:27:50.406Z,26.85
2023-05-05T07:30:19.065Z,27.02
2023-05-05T07:32:46.758Z,26.86
2023-05-05T07:35:13.963Z,26.55
2023-05-05T07:37:40.827Z,26.34
2023-05-05T07:40:09.304Z,25.99
2023-05-05T07:42:36.419Z,26.30
2023-05-05T07:45:07.398Z,26.02
2023-05-05T07:47:35.291Z,25.73
2023-05-05T07:50:02.318Z,25.59
2023-05-05T07:52:44.180Z,25.37
2023-05-05T07:55:15.041Z,25.31
2023-05-05T07:57:42.373Z,25.01
2023-05-05T08:00:13.422Z,24.77
2023-05-05T08:02:41.285Z,24.46
2023-05-05T08:05:09.252Z,24.22
2023-05-05T08:07:36.690Z,24.03
2023-05-05T08:10:05.028Z,23.79
2023-05-05T08:12:32.557Z,23.44
2023-05-05T08:14:59.439Z,23.37
2023-05-05T08:17:28.677Z,23.25
2023-05-05T08:19:56.158Z,23.06
2023-05-05T08:22:23.019Z,23.12
2023-05-05T08:24:50.089Z,23.13
2023-05-05T08:27:17.720Z,23.13
2023-05-05T08:29:44.811Z,23.10
2023-05-05T08:32:11.706Z,23.00
2023-05-05T08:34:40.312Z,23.06
2023-05-05T08:37:07.295Z,23.20
2023-05-05T08:39:34.169Z,23.10
2023-05-05T08:42:01.116Z,23.05
2023-05-05T08:44:28.314Z,23.21
2023-05-05T08:46:56.526Z,23.26
2023-05-05T08:49:25.956Z,23.34
2023-05-05T08:51:55.238Z,23.49
2023-05-05T08:54:29.431Z,23.63
2023-05-05T08:57:02.405Z,23.40
2023-05-05T08:59:31.918Z,23.38
2023-05-05T09:02:01.752Z,23.55
2023-05-05T09:04:29.511Z,23.70
2023-05-05T09:07:00.427Z,23.56
2023-05-05T09:09:28.400Z,23.42
2023-05-05T09:11:58.790Z,22.21
2023-05-05T09:14:25.577Z,21.71
2023-05-05T09:16:52.522Z,21.70
2023-05-05T09:19:20.306Z,21.36
2023-05-05T09:21:47.761Z,21.58
2023-05-05T09:24:15.979Z,21.80
2023-05-05T09:26:45.382Z,22.15
2023-05-05T09:29:18.727Z,22.52
2023-05-05T09:32:01.576Z,22.34
2023-05-05T09:34:28.746Z,22.32
2023-05-05T09:36:55.719Z,22.75
2023-05-05T09:39:23.859Z,23.06
2023-05-05T09:41:50.768Z,23.02
2023-05-05T09:44:34.284Z,23.10
2023-05-05T09:47:01.253Z,23.29
2023-05-05T09:49:28.567Z,23.49
2023-05-05T09:51:55.465Z,23.50
2023-05-05T09:54:26.067Z,23.82
2023-05-05T09:56:54.514Z,24.07
2023-05-05T09:59:22.689Z,23.44
2023-05-05T10:01:50.571Z,22.72
2023-05-05T10:04:25.166Z,23.27
2023-05-05T10:06:52.459Z,23.50
2023-05-05T10:09:20.597Z,22.99
2023-05-05T10:11:50.906Z,22.69
2023-05-05T10:14:19.833Z,22.84
2023-05-05T10:16:49.751Z,22.60
2023-05-05T10:19:19.908Z,22.86
2023-05-05T10:21:52.578Z,22.92
2023-05-05T10:24:34.524Z,22.62
2023-05-05T10:27:13.450Z,22.69
2023-05-05T10:29:52.149Z,23.10
2023-05-05T10:32:50.252Z,22.82
2023-05-05T10:35:19.514Z,22.48
2023-05-05T10:37:48.619Z,22.90
2023-05-05T10:40:17.461Z,22.18
2023-05-05T10:42:47.123Z,21.70
2023-05-05T10:45:15.010Z,21.80
2023-05-05T10:47:43.037Z,21.75
2023-05-05T10:50:26.628Z,21.52
2023-05-05T10:53:07.327Z,21.51
2023-05-05T10:55:44.397Z,21.51
2023-05-05T10:58:32.010Z,21.62
2023-05-05T11:00:59.150Z,21.69
2023-05-05T11:03:26.422Z,21.84
2023-05-05T11:06:13.025Z,21.51
2023-05-05T11:08:42.618Z,21.57
2023-05-05T11:11:11.550Z,21.55
2023-05-05T11:13:41.101Z,21.51
2023-05-05T11:16:44.957Z,21.61
2023-05-05T11:19:54.750Z,21.61
2023-05-05T11:22:21.985Z,21.66
2023-05-05T11:24:49.173Z,21.81
2023-05-05T11:27:16.031Z,21.72
2023-05-05T11:30:08.462Z,21.35
2023-05-05T11:32:35.739Z,21.35
2023-05-05T11:35:03.407Z,21.23
2023-05-05T11:37:30.676Z,21.32
2023-05-05T11:40:17.756Z,21.47
2023-05-05T11:42:45.600Z,21.70
2023-05-05T11:45:24.907Z,22.09
2023-05-05T11:47:51.829Z,22.37
2023-05-05T11:50:20.745Z,22.48
2023-05-05T11:52:48.000Z,22.81
2023-05-05T11:55:22.919Z,23.34
2023-05-05T11:57:50.059Z,23.88
2023-05-05T12:00:17.987Z,23.59
2023-05-05T12:02:46.612Z,23.51
2023-05-05T12:05:20.348Z,23.28
2023-05-05T12:07:47.600Z,23.66
2023-05-05T12:10:22.863Z,24.14
2023-05-05T12:12:49.988Z,23.96
2023-05-05T12:15:28.696Z,23.88
2023-05-05T12:17:57.130Z,24.49
2023-05-05T12:20:33.031Z,24.04
2023-05-05T12:23:01.974Z,24.13
2023-05-05T12:25:37.180Z,24.40
2023-05-05T12:28:08.039Z,24.41
2023-05-05T12:30:36.064Z,24.52
2023-05-05T12:33:06.551Z,24.84
2023-05-05T12:35:34.977Z,24.61
2023-05-05T12:38:02.198Z,24.51
2023-05-05T12:40:49.806Z,23.50
2023-05-05T12:43:31.365Z,23.65
2023-05-05T12:46:03.980Z,23.67
2023-05-05T12:48:36.588Z,23.75
2023-05-05T12:51:20.019Z,23.75
2023-05-05T12:53:49.515Z,23.56
2023-05-05T12:56:37.019Z,23.58
2023-05-05T12:59:06.401Z,23.49
2023-05-05T13:01:34.643Z,23.50
2023-05-05T13:04:14.375Z,23.21
2023-05-05T13:06:43.789Z,23.16
2023-05-05T13:09:24.084Z,23.47
2023-05-05T13:11:51.386Z,23.52
2023-05-05T13:14:18.885Z,23.74
2023-05-05T13:16:46.143Z,23.53
2023-05-05T13:19:14.706Z,23.60
2023-05-05T13:21:42.969Z,23.30
2023-05-05T13:24:23.038Z,23.74
2023-05-05T13:26:53.779Z,23.99
2023-05-05T13:29:20.792Z,23.93
2023-05-05T13:31:47.828Z,23.99
2023-05-05T13:34:16.469Z,23.48
2023-05-05T13:36:43.292Z,23.93
2023-05-05T13:39:10.527Z,24.12
2023-05-05T13:41:38.698Z,23.57
2023-05-05T13:44:05.550Z,23.87
2023-05-05T13:46:32.487Z,23.86
2023-05-05T13:48:59.349Z,24.04
2023-05-05T13:51:27.627Z,24.42
2023-05-05T13:53:54.782Z,24.75
2023-05-05T13:56:21.742Z,24.75
2023-05-05T13:58:48.675Z,24.36
2023-05-05T14:01:15.680Z,24.28
2023-05-05T14:03:42.819Z,23.67
2023-05-05T14:06:10.088Z,23.48
2023-05-05T14:08:38.391Z,23.44
2023-05-05T14:11:05.474Z,23.51
2023-05-05T14:13:33.909Z,23.43
2023-05-05T14:16:00.912Z,23.44
2023-05-05T14:18:28.072Z,23.51
2023-05-05T14:20:55.085Z,23.52
2023-05-05T14:23:22.927Z,23.57
2023-05-05T14:25:51.203Z,23.78
2023-05-05T14:28:18.087Z,23.33
2023-05-05T14:30:44.997Z,23.09
2023-05-05T14:33:11.977Z,23.46
2023-05-05T14:35:40.001Z,23.41
2023-05-05T14:38:06.898Z,23.52
2023-05-05T14:40:34.223Z,23.34
2023-05-05T14:43:02.594Z,23.33
2023-05-05T14:45:29.602Z,23.52
2023-05-05T14:47:57.163Z,23.51
2023-05-05T14:50:24.132Z,23.62
2023-05-05T14:52:51.004Z,23.60
2023-05-05T14:55:18.181Z,23.63
2023-05-05T14:57:45.132Z,23.72
2023-05-05T15:00:14.856Z,23.44
2023-05-05T15:02:41.861Z,23.27
2023-05-05T15:05:11.196Z,23.40
2023-05-05T15:07:38.255Z,23.41
2023-05-05T15:10:07.083Z,23.57
2023-05-05T15:12:34.091Z,23.67
2023-05-05T15:15:01.078Z,23.71
2023-05-05T15:17:29.928Z,23.63
2023-05-05T15:19:56.879Z,23.71
2023-05-05T15:22:24.038Z,23.61
2023-05-05T15:24:51.089Z,23.38
2023-05-05T15:27:18.336Z,23.40
2023-05-05T15:29:45.367Z,23.37
2023-05-05T15:32:12.352Z,23.18
2023-05-05T15:34:41.167Z,22.99
2023-05-05T15:37:08.034Z,23.06
2023-05-05T15:39:36.825Z,22.98
2023-05-05T15:42:04.410Z,22.87
2023-05-05T15:44:31.967Z,22.81
2023-05-05T15:46:58.946Z,22.80
2023-05-05T15:49:26.064Z,22.86
2023-05-05T15:51:54.336Z,22.91
2023-05-05T15:54:22.588Z,22.88
2023-05-05T15:56:49.540Z,22.87
2023-05-05T15:59:16.887Z,22.82
2023-05-05T16:01:44.064Z,22.76
2023-05-05T16:04:11.004Z,22.64
2023-05-05T16:06:38.033Z,22.55
2023-05-05T16:09:06.316Z,22.41
2023-05-05T16:11:33.782Z,22.40
2023-05-05T16:14:00.872Z,22.14
2023-05-05T16:16:27.871Z,22.06
2023-05-05T16:18:54.970Z,21.94
2023-05-05T16:21:22.246Z,21.96
2023-05-05T16:23:50.063Z,21.79
2023-05-05T16:26:18.487Z,21.81
2023-05-05T16:28:45.451Z,21.77
2023-05-05T16:31:12.448Z,21.59
2023-05-05T16:33:39.584Z,20.63
2023-05-05T16:36:08.648Z,20.03
2023-05-05T16:38:36.020Z,19.36
2023-05-05T16:41:02.917Z,18.89
2023-05-05T16:43:33.845Z,18.39
2023-05-05T16:46:00.735Z,17.89
2023-05-05T16:49:17.475Z,17.73
2023-05-05T16:51:46.168Z,17.68
2023-05-05T16:54:13.096Z,17.54
2023-05-05T16:56:40.027Z,17.48
2023-05-05T16:59:08.221Z,17.55
2023-05-05T17:01:35.668Z,17.56
2023-05-05T17:04:02.793Z,17.59
2023-05-05T17:06:31.659Z,17.60
2023-05-05T17:08:58.910Z,17.62
2023-05-05T17:11:26.041Z,17.54
2023-05-05T17:13:52.982Z,17.54
2023-05-05T17:16:21.268Z,17.60
2023-05-05T17:18:48.935Z,17.68
2023-05-05T17:21:17.322Z,17.66
2023-05-05T17:23:44.220Z,17.69
2023-05-05T17:26:12.238Z,17.76
2023-05-05T17:28:39.120Z,17.70
2023-05-05T17:31:06.265Z,17.60
2023-05-05T17:33:34.498Z,17.50
2023-05-05T17:36:02.209Z,17.56
2023-05-05T17:38:29.040Z,17.67
2023-05-05T17:40:55.997Z,17.58
2023-05-05T17:43:22.905Z,17.67
2023-05-05T17:45:50.087Z,17.63
2023-05-05T17:48:17.106Z,17.65
2023-05-05T17:51:36.835Z,17.63
2023-05-05T17:54:04.382Z,17.62
2023-05-05T17:56:31.232Z,17.72
2023-05-05T17:58:58.348Z,17.76
2023-05-05T18:01:26.868Z,17.80
2023-05-05T18:03:54.366Z,17.88
2023-05-05T18:06:21.354Z,17.85
2023-05-05T18:08:49.634Z,17.90
2023-05-05T18:11:16.900Z,17.96
2023-05-05T18:13:43.969Z,17.90
2023-05-05T18:16:10.924Z,17.78
2023-05-05T18:18:38.001Z,17.65
2023-05-05T18:21:04.888Z,17.48
2023-05-05T18:23:32.144Z,17.16
2023-05-05T18:26:00.807Z,16.99
2023-05-05T18:28:28.255Z,17.02
2023-05-05T18:30:55.520Z,16.96
2023-05-05T18:33:22.550Z,16.99
2023-05-05T18:35:50.604Z,16.88
2023-05-05T18:38:17.886Z,16.83
2023-05-05T18:40:44.917Z,16.97
2023-05-05T18:43:13.513Z,17.18
2023-05-05T18:45:40.433Z,17.32
2023-05-05T18:48:07.564Z,17.43
2023-05-05T18:50:36.265Z,17.51
2023-05-05T18:53:03.170Z,17.59
2023-05-05T18:55:30.229Z,17.65
2023-05-05T18:57:57.219Z,17.70
2023-05-05T19:00:26.477Z,17.60
2023-05-05T19:02:54.257Z,17.52
2023-05-05T19:05:21.668Z,17.25
2023-05-05T19:08:02.777Z,17.23
2023-05-05T19:10:30.104Z,17.33
2023-05-05T19:12:57.262Z,17.30
2023-05-05T19:15:25.661Z,17.40
2023-05-05T19:17:52.954Z,17.50
2023-05-05T19:20:20.086Z,17.55
2023-05-05T19:22:47.373Z,17.59
2023-05-05T19:25:17.284Z,17.66
2023-05-05T19:27:44.581Z,17.48
2023-05-05T19:30:12.548Z,17.55
2023-05-05T19:32:40.873Z,17.63
2023-05-05T19:35:09.003Z,17.64
2023-05-05T19:37:36.937Z,17.67
2023-05-05T19:40:07.034Z,17.47
2023-05-05T19:42:34.124Z,17.47
2023-05-05T19:45:03.653Z,17.49
2023-05-05T19:47:32.528Z,17.33
2023-05-05T19:50:00.812Z,17.09
2023-05-05T19:52:28.052Z,16.58
2023-05-05T19:54:54.863Z,16.55
2023-05-05T19:57:22.842Z,16.60
2023-05-05T19:59:49.732Z,16.80
2023-05-05T20:02:16.873Z,16.97
2023-05-05T20:04:44.048Z,17.01
2023-05-05T20:07:12.506Z,17.10
2023-05-05T20:09:39.557Z,17.17
2023-05-05T20:12:07.517Z,17.27
2023-05-05T20:14:34.890Z,16.84
2023-05-05T20:17:02.938Z,16.49
2023-05-05T20:19:30.278Z,16.41
2023-05-05T20:21:57.167Z,16.31
2023-05-05T20:24:25.458Z,16.18
2023-05-05T20:26:52.447Z,16.11
2023-05-05T20:29:19.354Z,16.28
2023-05-05T20:31:46.289Z,16.50
2023-05-05T20:34:13.386Z,16.67
2023-05-05T20:36:40.276Z,16.73
2023-05-05T20:39:07.226Z,16.63
2023-05-05T20:41:40.717Z,16.66
2023-05-05T20:44:07.872Z,16.59
2023-05-05T20:46:35.099Z,16.64
2023-05-05T20:49:02.060Z,16.70
2023-05-05T20:51:29.122Z,16.79
2023-05-05T20:53:56.370Z,16.90
2023-05-05T20:56:23.289Z,16.97
2023-05-05T20:59:24.628Z,17.05
2023-05-05T21:01:52.024Z,17.14
2023-05-05T21:04:18.979Z,17.09
2023-05-05T21:06:46.190Z,17.14
2023-05-05T21:09:13.242Z,17.20
2023-05-05T21:11:43.496Z,17.21
2023-05-05T21:14:10.597Z,17.24
2023-05-05T21:16:39.069Z,17.26
2023-05-05T21:19:06.031Z,17.25
2023-05-05T21:21:32.933Z,17.09
2023-05-05T21:23:59.809Z,16.89
2023-05-05T21:26:26.805Z,16.71
2023-05-05T21:28:54.051Z,16.68
2023-05-05T21:31:22.384Z,16.57
2023-05-05T21:33:50.713Z,16.74
2023-05-05T21:36:17.875Z,16.89
2023-05-05T21:38:44.952Z,16.79
2023-05-05T21:41:11.826Z,16.74
2023-05-05T21:43:38.874Z,16.83
2023-05-05T21:46:06.066Z,16.86
2023-05-05T21:48:33.395Z,16.54
2023-05-05T21:51:01.635Z,16.73
2023-05-05T21:53:28.535Z,16.78
2023-05-05T21:55:55.428Z,16.57
2023-05-05T21:58:23.663Z,16.58
2023-05-05T22:00:50.963Z,16.72
2023-05-05T22:03:18.202Z,16.82
2023-05-05T22:05:45.125Z,16.92
2023-05-05T22:08:13.577Z,16.93
2023-05-05T22:10:40.832Z,17.03
2023-05-05T22:13:07.948Z,17.09
2023-05-05T22:15:45.837Z,17.05
2023-05-05T22:18:14.467Z,17.01
2023-05-05T22:20:41.617Z,17.04
2023-05-05T22:23:08.555Z,17.08
2023-05-05T22:25:36.970Z,17.08
2023-05-05T22:28:04.421Z,17.04
2023-05-05T22:30:31.277Z,17.08
2023-05-05T22:32:58.321Z,17.07
2023-05-05T22:35:25.207Z,16.98
2023-05-05T22:37:52.377Z,16.96
2023-05-05T22:40:19.346Z,16.95
2023-05-05T22:42:47.626Z,16.97
2023-05-05T22:45:14.704Z,16.89
2023-05-05T22:47:41.626Z,16.71
2023-05-05T22:50:09.903Z,16.34
2023-05-05T22:52:36.738Z,16.44
2023-05-05T22:55:04.106Z,16.56
2023-05-05T22:57:31.008Z,16.59
2023-05-05T22:59:59.186Z,16.73
2023-05-05T23:02:26.804Z,16.59
2023-05-05T23:04:53.899Z,16.54
2023-05-05T23:07:21.083Z,16.60
2023-05-05T23:09:48.526Z,16.76
2023-05-05T23:12:15.808Z,16.86
2023-05-05T23:14:42.750Z,16.95
2023-05-05T23:17:11.054Z,16.97
2023-05-05T23:19:37.993Z,17.01
2023-05-05T23:22:04.866Z,16.94
2023-05-05T23:24:31.793Z,16.86
2023-05-05T23:27:00.785Z,16.81
2023-05-05T23:29:28.112Z,16.69
2023-05-05T23:31:55.174Z,16.67
2023-05-05T23:34:23.772Z,16.34
2023-05-05T23:36:51.020Z,16.39
2023-05-05T23:39:18.150Z,16.46
2023-05-05T23:41:45.042Z,16.51
2023-05-05T23:44:12.075Z,16.49
2023-05-05T23:46:39.019Z,16.45
2023-05-05T23:49:05.932Z,16.47
2023-05-05T23:51:34.126Z,16.46
2023-05-05T23:54:01.006Z,16.45
2023-05-05T23:56:28.558Z,16.45
2023-05-05T23:58:55.398Z,16.46
